Time;durP1;ratioP1;P1;durP2;ratioP2;P2;SDS_P1;SDS_P2;PMS_P1;PMS_P2;Temp;Humidity;BMP_temperature;BMP_pressure;BME280_temperature;BME280_humidity;BME280_pressure;Samples;Min_cycle;Max_cycle;Signal;HPM_P1;HPM_P2
2023/04/03 00:01:49;;;;;;;3.43;2.47;;;;;;;2.12;100.00;96483.88;5011611;28;24959;-77
2023/04/03 00:04:15;;;;;;;4.13;2.25;;;;;;;2.07;100.00;96487.34;5012311;28;24435;-77
2023/04/03 00:06:42;;;;;;;3.55;2.42;;;;;;;2.47;100.00;96482.34;5011197;28;25084;-77
2023/04/03 00:09:08;;;;;;;2.97;2.60;;;;;;;2.47;100.00;96484.91;5011989;28;24441;-76
2023/04/03 00:11:35;;;;;;;3.08;2.35;;;;;;;2.44;100.00;96487.50;5010972;28;24464;-77
2023/04/03 00:14:01;;;;;;;4.07;2.38;;;;;;;2.35;100.00;96483.44;5011774;28;24440;-76
2023/04/03 00:16:29;;;;;;;3.95;2.40;;;;;;;2.39;100.00;96479.09;5011694;28;25061;-76
2023/04/03 00:18:56;;;;;;;7.95;2.33;;;;;;;2.28;100.00;96479.31;5011535;28;24818;-76
2023/04/03 00:21:22;;;;;;;3.90;2.30;;;;;;;2.24;100.00;96493.00;5011749;28;24524;-76
2023/04/03 00:23:49;;;;;;;3.58;2.38;;;;;;;2.52;100.00;96485.69;5002200;28;24447;-76
2023/04/03 00:26:15;;;;;;;4.78;2.63;;;;;;;2.34;100.00;96479.19;5011781;28;24437;-76
2023/04/03 00:28:42;;;;;;;4.20;3.03;;;;;;;2.33;100.00;96479.22;5010850;28;24431;-76
2023/04/03 00:31:08;;;;;;;3.45;2.80;;;;;;;2.29;100.00;96480.97;5011531;28;24467;-76
2023/04/03 00:33:36;;;;;;;3.35;2.63;;;;;;;2.15;100.00;96481.25;5011277;28;24523;-76
2023/04/03 00:36:07;;;;;;;3.38;2.60;;;;;;;2.02;100.00;96484.91;5011481;28;24448;-77
2023/04/03 00:38:33;;;;;;;4.33;2.80;;;;;;;2.11;100.00;96478.75;5011293;28;24966;-76
2023/04/03 00:41:00;;;;;;;4.67;2.70;;;;;;;1.94;100.00;96477.38;5011300;28;24453;-76
2023/04/03 00:43:27;;;;;;;3.63;2.80;;;;;;;2.03;100.00;96488.28;5011240;28;24443;-76
2023/04/03 00:45:55;;;;;;;3.95;3.00;;;;;;;1.88;100.00;96479.19;5011359;28;24534;-76
2023/04/03 00:48:26;;;;;;;3.35;2.60;;;;;;;2.15;100.00;96476.16;5010997;28;24503;-76
2023/04/03 00:50:54;;;;;;;3.57;2.57;;;;;;;2.26;100.00;96472.53;5010734;28;24441;-77
2023/04/03 00:53:26;;;;;;;5.22;2.80;;;;;;;2.07;100.00;96479.69;5010839;28;24815;-76
2023/04/03 00:55:55;;;;;;;2.70;2.30;;;;;;;2.12;100.00;96468.53;5011050;28;24424;-76
2023/04/03 00:58:26;;;;;;;4.45;2.75;;;;;;;2.23;100.00;96475.16;5004973;28;24482;-76
2023/04/03 01:00:57;;;;;;;4.40;2.95;;;;;;;2.17;100.00;96469.28;5011060;28;24448;-76
2023/04/03 01:03:24;;;;;;;4.07;2.28;;;;;;;2.23;100.00;96472.63;5010991;28;24469;-77
2023/04/03 01:05:51;;;;;;;3.78;2.50;;;;;;;2.05;100.00;96472.06;5010631;28;24970;-76
2023/04/03 01:08:19;;;;;;;4.07;2.72;;;;;;;2.15;100.00;96476.16;5010564;28;24519;-76
2023/04/03 01:10:45;;;;;;;7.97;2.93;;;;;;;2.03;100.00;96470.41;5010891;28;24546;-76
2023/04/03 01:13:25;;;;;;;6.35;3.13;;;;;;;2.17;100.00;96483.78;5010656;28;24464;-77
2023/04/03 01:15:51;;;;;;;3.45;2.40;;;;;;;2.08;100.00;96472.03;5010866;28;24815;-76
2023/04/03 01:18:18;;;;;;;3.97;2.88;;;;;;;2.07;100.00;96477.13;5010475;28;24444;-77
2023/04/03 01:21:08;;;;;;;6.07;2.45;;;;;;;2.07;100.00;96477.13;5010609;28;24444;-76
2023/04/03 01:23:48;;;;;;;4.15;2.95;;;;;;;2.04;100.00;96480.63;5010356;28;24443;-76
2023/04/03 01:26:14;;;;;;;3.72;2.40;;;;;;;2.11;100.00;96471.97;5003830;28;24439;-76
2023/04/03 01:28:41;;;;;;;3.03;2.30;;;;;;;1.93;100.00;96477.41;5010009;28;24433;-77
2023/04/03 01:31:15;;;;;;;4.28;2.35;;;;;;;2.03;100.00;96475.50;5010286;28;25310;-76
2023/04/03 01:33:44;;;;;;;4.03;2.67;;;;;;;2.02;100.00;96469.56;5010446;28;24424;-77
2023/04/03 01:36:15;;;;;;;3.05;2.20;;;;;;;1.91;100.00;96479.97;5010074;28;24440;-77
2023/04/03 01:38:42;;;;;;;7.78;2.65;;;;;;;2.20;100.00;96482.88;5010047;28;25003;-77
2023/04/03 01:41:08;;;;;;;2.78;2.20;;;;;;;2.00;100.00;96480.66;5010232;28;24444;-76
2023/04/03 01:43:35;;;;;;;3.60;2.72;;;;;;;1.85;100.00;96469.00;5010251;28;24440;-77
2023/04/03 01:46:01;;;;;;;3.80;2.30;;;;;;;2.00;100.00;96480.66;5010449;28;24444;-76
2023/04/03 01:48:28;;;;;;;3.42;2.50;;;;;;;2.04;100.00;96488.28;5009955;28;24451;-77
2023/04/03 01:50:55;;;;;;;3.33;2.35;;;;;;;1.98;100.00;96478.16;5010263;28;24440;-77
2023/04/03 01:53:22;;;;;;;3.88;2.45;;;;;;;1.96;100.00;96479.03;5010249;28;24464;-76
2023/04/03 01:55:49;;;;;;;5.00;2.50;;;;;;;2.01;100.00;96484.94;5010041;28;24449;-76
2023/04/03 01:58:15;;;;;;;6.97;2.23;;;;;;;1.92;100.00;96480.81;5009685;28;24439;-76
2023/04/03 02:00:42;;;;;;;5.47;2.30;;;;;;;1.93;100.00;96478.25;5009748;28;24997;-77
2023/04/03 02:03:08;;;;;;;5.78;2.78;;;;;;;1.97;100.00;96485.88;5009966;28;24444;-76
2023/04/03 02:05:35;;;;;;;4.10;2.40;;;;;;;1.93;100.00;96487.63;5007505;28;24433;-76
2023/04/03 02:08:03;;;;;;;2.83;2.10;;;;;;;1.94;100.00;96481.63;5006547;28;24524;-77
2023/04/03 02:10:29;;;;;;;2.88;2.40;;;;;;;2.11;100.00;96477.09;5010147;28;24435;-77
2023/04/03 02:12:56;;;;;;;4.93;2.35;;;;;;;1.82;100.00;96481.84;5009554;28;24460;-76
2023/04/03 02:15:22;;;;;;;4.00;2.23;;;;;;;1.85;100.00;96485.19;5009778;28;24442;-77
2023/04/03 02:17:49;;;;;;;2.70;2.28;;;;;;;1.89;100.00;96483.41;5009605;28;24437;-76
2023/04/03 02:20:15;;;;;;;5.03;2.65;;;;;;;2.07;100.00;96482.25;5009765;28;24520;-76
2023/04/03 02:22:42;;;;;;;6.95;2.33;;;;;;;1.85;100.00;96486.88;5009718;28;24464;-76
2023/04/03 02:25:10;;;;;;;2.75;2.10;;;;;;;1.88;100.00;96486.84;5009478;28;24440;-76
2023/04/03 02:27:37;;;;;;;3.83;2.30;;;;;;;1.95;100.00;96478.22;5008748;28;24440;-77
2023/04/03 02:30:05;;;;;;;4.80;2.47;;;;;;;1.86;100.00;96483.50;5009800;28;24441;-75
2023/04/03 02:32:31;;;;;;;3.33;2.60;;;;;;;1.93;100.00;96487.63;5009520;28;24465;-76
2023/04/03 02:34:58;;;;;;;4.80;2.63;;;;;;;2.02;100.00;96484.91;5011122;28;25001;-76
2023/04/03 02:37:24;;;;;;;3.97;2.38;;;;;;;1.80;100.00;96486.13;5016053;28;24438;-76
2023/04/03 02:39:51;;;;;;;3.30;2.35;;;;;;;1.79;100.00;96487.84;5013590;28;24443;-76
2023/04/03 02:42:19;;;;;;;3.63;2.50;;;;;;;1.77;100.00;96486.19;5013220;28;24432;-77
2023/04/03 02:44:45;;;;;;;4.60;2.45;;;;;;;1.78;100.00;96480.19;5013068;28;24539;-76
2023/04/03 02:47:12;;;;;;;3.65;2.30;;;;;;;1.78;100.00;96490.41;5013129;28;24432;-77
2023/04/03 02:49:38;;;;;;;4.65;2.60;;;;;;;1.87;100.00;96483.44;5013088;28;24444;-76
2023/04/03 02:52:05;;;;;;;3.33;2.50;;;;;;;1.64;100.00;96485.56;5012890;28;25021;-77
2023/04/03 02:54:31;;;;;;;4.78;2.25;;;;;;;1.51;100.00;96476.41;5012879;28;24451;-77
2023/04/03 02:56:58;;;;;;;4.55;2.47;;;;;;;1.96;100.00;96491.81;5013054;28;24444;-76
2023/04/03 02:59:26;;;;;;;8.48;2.42;;;;;;;1.76;100.00;96480.25;5010538;28;24432;-76
2023/04/03 03:01:53;;;;;;;2.60;2.03;;;;;;;1.58;100.00;96489.03;5012955;28;24444;-76
2023/04/03 03:04:20;;;;;;;3.75;2.50;;;;;;;1.66;100.00;96482.09;5012397;28;24436;-77
2023/04/03 03:06:46;;;;;;;4.47;2.25;;;;;;;1.73;100.00;96487.94;5012690;28;24648;-77
2023/04/03 03:09:13;;;;;;;4.03;2.42;;;;;;;1.76;100.00;96487.06;5013128;28;24531;-76
2023/04/03 03:11:40;;;;;;;4.13;2.13;;;;;;;1.75;100.00;96480.28;5012524;28;24495;-76
2023/04/03 03:14:06;;;;;;;2.15;1.95;;;;;;;1.60;100.00;96474.56;5008918;28;24444;-76
2023/04/03 03:16:34;;;;;;;3.22;2.10;;;;;;;1.61;100.00;96467.72;5012702;28;24452;-76
2023/04/03 03:19:01;;;;;;;3.75;2.40;;;;;;;1.71;100.00;96476.94;5012800;28;24436;-76
2023/04/03 03:21:27;;;;;;;4.20;2.53;;;;;;;1.43;100.00;96466.31;5013003;28;24486;-76
2023/04/03 03:23:54;;;;;;;3.53;2.10;;;;;;;1.49;100.00;96466.22;5012743;28;24978;-77
2023/04/03 03:26:21;;;;;;;6.95;2.50;;;;;;;1.55;100.00;96467.81;5012374;28;25058;-76
2023/04/03 03:28:47;;;;;;;6.22;2.58;;;;;;;1.56;100.00;96470.38;5012761;28;24436;-77
2023/04/03 03:31:15;;;;;;;5.35;2.60;;;;;;;1.55;100.00;96467.81;5005601;28;24448;-76
2023/04/03 03:33:42;;;;;;;3.58;2.60;;;;;;;1.49;100.00;96467.94;5012319;28;24526;-76
2023/04/03 03:36:09;;;;;;;6.70;2.42;;;;;;;1.48;100.00;96464.50;5010816;28;24440;-76
2023/04/03 03:38:35;;;;;;;6.07;2.63;;;;;;;1.56;100.00;96472.03;5012300;28;24436;-76
2023/04/03 03:41:02;;;;;;;4.18;2.50;;;;;;;1.49;100.00;96463.66;5012489;28;24436;-77
2023/04/03 03:43:28;;;;;;;3.72;2.10;;;;;;;1.35;100.00;96463.03;5001164;28;24425;-76
2023/04/03 03:45:56;;;;;;;4.03;2.38;;;;;;;1.32;100.00;96474.13;5009219;28;24436;-76
2023/04/03 03:48:22;;;;;;;4.25;2.22;;;;;;;1.32;100.00;96465.63;5011920;28;24475;-77
2023/04/03 03:50:51;;;;;;;3.13;2.30;;;;;;;1.27;100.00;96462.31;5012256;28;24440;-76
2023/04/03 03:53:17;;;;;;;3.72;2.20;;;;;;;1.47;100.00;96465.38;5011894;28;24785;-76
2023/04/03 03:55:44;;;;;;;3.77;2.43;;;;;;;1.38;100.00;96474.03;5011685;28;24506;-76
2023/04/03 03:58:10;;;;;;;4.40;2.58;;;;;;;1.44;100.00;96475.66;5008968;28;24436;-75
2023/04/03 04:00:37;;;;;;;4.15;2.40;;;;;;;1.61;100.00;96472.84;5011722;28;25013;-76
2023/04/03 04:03:04;;;;;;;3.05;2.10;;;;;;;1.43;100.00;96472.25;5011141;28;24436;-77
2023/04/03 04:05:31;;;;;;;4.57;2.40;;;;;;;1.51;100.00;96467.03;5006958;28;24447;-74
2023/04/03 04:07:58;;;;;;;2.45;2.05;;;;;;;1.52;100.00;96473.84;5008060;28;24545;-75
2023/04/03 04:10:25;;;;;;;2.90;2.13;;;;;;;1.70;100.00;96476.06;5006337;28;24432;-75
2023/04/03 04:12:52;;;;;;;3.50;2.45;;;;;;;1.82;100.00;96480.16;5011587;28;24467;-76
2023/04/03 04:15:18;;;;;;;3.25;2.25;;;;;;;1.68;100.00;96479.53;5007153;28;24442;-76
2023/04/03 04:17:45;;;;;;;4.40;2.60;;;;;;;1.82;100.00;96479.31;5005465;28;24519;-76
2023/04/03 04:20:12;;;;;;;3.95;2.47;;;;;;;1.89;100.00;96484.28;5011660;28;24444;-76
2023/04/03 04:22:38;;;;;;;3.88;2.60;;;;;;;1.56;100.00;96480.56;5011332;28;24439;-76
2023/04/03 04:25:08;;;;;;;3.65;2.45;;;;;;;1.72;100.00;96490.53;5011280;28;24447;-76
2023/04/03 04:27:34;;;;;;;4.93;2.65;;;;;;;1.51;100.00;96482.34;5011539;28;24444;-76
2023/04/03 04:30:01;;;;;;;3.17;2.33;;;;;;;1.84;100.00;96485.22;5011164;28;24990;-77
2023/04/03 04:32:27;;;;;;;2.72;2.00;;;;;;;1.84;100.00;96483.50;5006289;28;24558;-79
2023/04/03 04:34:54;;;;;;;2.60;2.40;;;;;;;1.76;100.00;96489.63;5011316;28;24447;-80
2023/04/03 04:37:21;;;;;;;3.25;2.33;;;;;;;1.53;100.00;96484.88;5011704;28;25032;-76
2023/04/03 04:39:47;;;;;;;2.65;2.30;;;;;;;1.63;100.00;96483.84;5023167;28;24937;-76
2023/04/03 04:42:15;;;;;;;3.63;2.25;;;;;;;1.75;100.00;96478.56;5009839;28;25017;-76
2023/04/03 04:44:41;;;;;;;5.13;2.38;;;;;;;1.55;100.00;96483.13;5010931;28;24444;-76
2023/04/03 04:47:08;;;;;;;3.15;2.25;;;;;;;1.80;100.00;96481.88;5011037;28;24440;-76
2023/04/03 04:49:34;;;;;;;4.25;2.63;;;;;;;1.66;100.00;96481.25;5009163;28;24447;-76
2023/04/03 04:52:01;;;;;;;4.03;2.53;;;;;;;1.84;100.00;96492.88;5002252;28;24447;-76
2023/04/03 04:54:27;;;;;;;3.80;2.42;;;;;;;1.72;100.00;96490.53;5011000;28;24463;-76
2023/04/03 04:56:54;;;;;;;5.60;2.58;;;;;;;1.48;100.00;96489.19;5010530;28;24436;-76
2023/04/03 04:59:22;;;;;;;3.90;2.42;;;;;;;1.52;100.00;96489.16;5011098;28;24460;-75
2023/04/03 05:01:48;;;;;;;3.75;2.50;;;;;;;1.52;100.00;96494.25;5010471;28;25057;-75
2023/04/03 05:04:15;;;;;;;3.80;2.50;;;;;;;1.79;100.00;96497.22;5010989;28;24428;-76
2023/04/03 05:06:42;;;;;;;4.20;2.45;;;;;;;1.64;100.00;96494.06;5009987;28;24495;-76
2023/04/03 05:09:09;;;;;;;7.43;2.00;;;;;;;1.58;100.00;96499.25;5011087;28;24447;-75
2023/04/03 05:11:36;;;;;;;2.90;2.10;;;;;;;1.50;100.00;96500.25;5010887;28;24531;-76
2023/04/03 05:14:05;;;;;;;3.92;2.35;;;;;;;1.72;100.00;96510.97;5010820;28;24467;-76
2023/04/03 05:16:33;;;;;;;2.30;2.03;;;;;;;1.69;100.00;96506.75;5010752;28;24520;-76
2023/04/03 05:18:59;;;;;;;8.30;2.58;;;;;;;1.80;100.00;96504.00;5007772;28;24451;-76
2023/04/03 05:21:27;;;;;;;2.93;2.30;;;;;;;1.84;100.00;96508.19;5010494;28;24536;-75
2023/04/03 05:23:54;;;;;;;2.92;2.35;;;;;;;1.78;100.00;96511.72;5012228;28;24507;-77
2023/04/03 05:26:20;;;;;;;2.83;2.38;;;;;;;1.68;100.00;96505.91;5014323;28;24437;-76
2023/04/03 05:28:47;;;;;;;5.07;2.58;;;;;;;1.69;100.00;96515.25;5014067;28;24506;-76
2023/04/03 05:31:14;;;;;;;2.85;2.20;;;;;;;1.72;100.00;96516.06;5011108;28;24811;-73
2023/04/03 05:33:42;;;;;;;5.50;2.13;;;;;;;1.87;100.00;96513.25;5009853;28;25005;-76
2023/04/03 05:36:09;;;;;;;7.82;2.30;;;;;;;2.02;100.00;96520.66;5006015;28;24440;-79
2023/04/03 05:38:35;;;;;;;2.65;2.00;;;;;;;1.95;100.00;96524.19;5004455;28;24437;-79
2023/04/03 05:41:02;;;;;;;3.87;2.30;;;;;;;1.83;100.00;96515.03;5011376;28;24455;-78
2023/04/03 05:43:28;;;;;;;3.50;2.17;;;;;;;1.76;100.00;96516.00;5011483;28;24436;-79
2023/04/03 05:45:55;;;;;;;4.35;2.40;;;;;;;2.09;100.00;96516.28;5009023;28;24439;-79
2023/04/03 05:48:21;;;;;;;3.00;2.30;;;;;;;2.09;100.00;96518.84;5007525;28;26650;-79
2023/04/03 05:50:49;;;;;;;3.65;2.35;;;;;;;2.26;100.00;96518.53;5009813;28;24459;-78
2023/04/03 05:53:21;;;;;;;3.15;2.25;;;;;;;2.32;100.00;96521.00;5008070;28;24530;-76
2023/04/03 05:55:48;;;;;;;4.43;2.30;;;;;;;2.10;100.00;96523.91;5011475;28;24815;-77
2023/04/03 05:58:14;;;;;;;3.10;2.38;;;;;;;2.05;100.00;96514.66;5009790;28;24448;-77
2023/04/03 06:00:41;;;;;;;3.80;2.15;;;;;;;2.15;100.00;96517.03;5010048;28;24524;-77
2023/04/03 06:03:08;;;;;;;4.90;1.98;;;;;;;1.92;100.00;96526.78;5002488;28;24462;-77
2023/04/03 06:05:34;;;;;;;3.25;1.92;;;;;;;2.35;100.00;96523.50;5011694;28;24444;-77
2023/04/03 06:08:03;;;;;;;2.85;1.80;;;;;;;2.12;100.00;96526.47;5009721;28;24571;-76
2023/04/03 06:10:30;;;;;;;2.25;1.80;;;;;;;2.24;100.00;96530.50;5004546;28;24440;-76
2023/04/03 06:12:56;;;;;;;3.75;1.98;;;;;;;2.18;100.00;96532.28;5009594;28;24493;-76
2023/04/03 06:15:23;;;;;;;2.20;1.80;;;;;;;2.20;100.00;96531.44;5009384;28;24440;-76
2023/04/03 06:17:49;;;;;;;3.72;2.20;;;;;;;2.30;100.00;96532.94;5007103;28;24440;-76
2023/04/03 06:20:17;;;;;;;2.75;2.08;;;;;;;2.39;100.00;96532.78;5009435;28;24441;-76
2023/04/03 06:22:44;;;;;;;4.25;2.35;;;;;;;3.04;100.00;96529.78;5009198;28;24507;-70
2023/04/03 06:25:12;;;;;;;3.25;2.00;;;;;;;2.91;100.00;96529.22;5007572;28;25030;-76
2023/04/03 06:27:39;;;;;;;4.80;2.28;;;;;;;3.20;100.00;96526.03;5002476;28;24444;-80
2023/04/03 06:30:07;;;;;;;3.13;2.40;;;;;;;3.39;100.00;96526.47;5010343;28;24519;-76
2023/04/03 06:32:33;;;;;;;4.00;2.28;;;;;;;3.35;100.00;96528.25;5005321;28;24444;-77
2023/04/03 06:35:00;;;;;;;3.55;2.08;;;;;;;3.13;100.00;96533.00;4999490;28;24463;-76
2023/04/03 06:37:28;;;;;;;3.03;2.03;;;;;;;2.84;100.00;96536.16;5004561;28;24432;-76
2023/04/03 06:39:55;;;;;;;4.97;2.10;;;;;;;3.12;100.00;96538.19;5006670;28;25044;-72
2023/04/03 06:42:24;;;;;;;2.63;1.90;;;;;;;3.00;100.00;96539.25;5006397;28;24979;-73
2023/04/03 06:44:50;;;;;;;4.05;1.98;;;;;;;2.82;100.00;96539.66;5006590;28;24511;-73
2023/04/03 06:47:17;;;;;;;3.80;2.40;;;;;;;2.85;100.00;96550.63;5007997;28;24537;-73
2023/04/03 06:49:44;;;;;;;3.53;2.35;;;;;;;2.84;100.00;96550.69;5009012;28;24444;-72
2023/04/03 06:52:11;;;;;;;3.92;2.47;;;;;;;2.49;100.00;96547.09;5009100;28;24451;-74
2023/04/03 06:54:38;;;;;;;3.95;1.92;;;;;;;2.61;100.00;96541.75;5008966;28;24888;-74
2023/04/03 06:57:05;;;;;;;3.40;2.10;;;;;;;2.63;100.00;96551.94;5009055;28;24445;-74
2023/04/03 06:59:33;;;;;;;3.22;2.00;;;;;;;2.76;100.00;96543.16;5009107;28;25002;-76
2023/04/03 07:02:00;;;;;;;7.03;2.40;;;;;;;2.55;100.00;96546.97;5008995;28;24455;-76
2023/04/03 07:04:26;;;;;;;4.15;2.38;;;;;;;2.60;100.00;96557.13;5008985;28;24439;-77
2023/04/03 07:06:53;;;;;;;2.97;2.10;;;;;;;2.63;100.00;96555.34;5008983;28;24457;-76
2023/04/03 07:09:19;;;;;;;3.83;2.17;;;;;;;2.61;100.00;96557.09;5009435;28;24441;-76
2023/04/03 07:11:46;;;;;;;3.17;1.73;;;;;;;2.61;100.00;96558.81;5008594;28;24463;-76
2023/04/03 07:14:12;;;;;;;4.05;2.40;;;;;;;2.66;100.00;96554.44;5008769;28;24464;-76
2023/04/03 07:16:40;;;;;;;3.95;2.25;;;;;;;2.70;100.00;96555.22;5009029;28;24440;-77
2023/04/03 07:19:08;;;;;;;4.40;2.13;;;;;;;2.70;100.00;96557.78;5008733;28;24429;-77
2023/04/03 07:21:35;;;;;;;6.68;2.33;;;;;;;2.68;100.00;96560.38;5011373;28;24440;-75
2023/04/03 07:24:01;;;;;;;3.97;2.40;;;;;;;2.52;100.00;96561.50;5011963;28;24455;-77
2023/04/03 07:26:28;;;;;;;2.70;2.00;;;;;;;2.64;100.00;96557.03;5007643;28;24436;-77
2023/04/03 07:28:54;;;;;;;3.65;2.08;;;;;;;2.73;100.00;96567.94;5010645;28;24428;-76
2023/04/03 07:31:21;;;;;;;3.63;2.28;;;;;;;2.59;100.00;96571.59;5012277;28;24441;-76
2023/04/03 07:33:49;;;;;;;3.53;2.05;;;;;;;2.48;100.00;96567.56;5011573;28;24459;-76
2023/04/03 07:36:18;;;;;;;3.92;2.28;;;;;;;2.80;100.00;96569.53;5012272;28;24445;-76
2023/04/03 07:38:45;;;;;;;7.15;2.40;;;;;;;2.90;100.00;96571.03;5011350;28;24440;-75
2023/04/03 07:41:14;;;;;;;3.13;2.15;;;;;;;3.05;100.00;96575.84;5011751;28;25004;-76
2023/04/03 07:43:42;;;;;;;5.05;2.35;;;;;;;3.30;100.00;96572.75;5009318;28;24838;-77
2023/04/03 07:46:08;;;;;;;4.13;2.50;;;;;;;3.29;100.00;96579.59;5012412;28;24527;-77
2023/04/03 07:48:35;;;;;;;2.53;2.08;;;;;;;2.99;100.00;96577.69;5011711;28;24990;-75
2023/04/03 07:51:04;;;;;;;5.75;2.33;;;;;;;3.07;100.00;96579.19;5012201;28;24433;-75
2023/04/03 07:53:32;;;;;;;3.85;2.15;;;;;;;3.08;100.00;96580.06;5011335;28;25129;-75
2023/04/03 07:55:59;;;;;;;2.95;2.15;;;;;;;3.00;100.00;96587.03;5011412;28;24452;-77
2023/04/03 07:58:26;;;;;;;5.60;2.40;;;;;;;3.16;100.00;96590.97;5010402;28;24499;-76
2023/04/03 08:00:53;;;;;;;4.93;2.50;;;;;;;3.23;100.00;96586.59;5011824;28;24514;-76
2023/04/03 08:03:19;;;;;;;4.93;2.83;;;;;;;2.95;100.00;96592.25;5011871;28;24437;-76
2023/04/03 08:05:48;;;;;;;4.80;2.55;;;;;;;3.20;100.00;96587.47;5011633;28;24436;-76
2023/04/03 08:08:17;;;;;;;4.10;2.70;;;;;;;3.27;100.00;96595.88;5009463;28;24433;-76
2023/04/03 08:10:44;;;;;;;3.63;2.35;;;;;;;3.40;100.00;96589.59;5011806;28;24447;-75
2023/04/03 08:13:10;;;;;;;4.23;2.70;;;;;;;3.45;100.00;96598.06;5011500;28;24529;-76
2023/04/03 08:15:37;;;;;;;7.55;2.60;;;;;;;3.44;100.00;96596.34;5011564;28;24895;-76
2023/04/03 08:18:04;;;;;;;2.95;2.33;;;;;;;3.36;100.00;96591.38;5011334;28;24466;-76
2023/04/03 08:20:30;;;;;;;4.10;2.80;;;;;;;3.49;100.00;96592.00;5011670;28;24460;-76
2023/04/03 08:22:57;;;;;;;4.40;2.90;;;;;;;3.45;100.00;96592.06;5011525;28;24436;-76
2023/04/03 08:25:25;;;;;;;4.65;2.70;;;;;;;3.40;100.00;96597.28;5011338;28;24444;-76
2023/04/03 08:27:51;;;;;;;5.38;2.55;;;;;;;3.42;100.00;96598.13;5011182;28;24494;-77
2023/04/03 08:30:18;;;;;;;4.88;3.28;;;;;;;3.40;100.00;96594.72;5011630;28;24451;-76
2023/04/03 08:32:45;;;;;;;4.63;2.63;;;;;;;3.48;100.00;96595.41;5007262;28;24477;-76
2023/04/03 08:35:11;;;;;;;4.35;2.40;;;;;;;3.55;100.00;96594.41;5006607;28;24459;-76
2023/04/03 08:37:39;;;;;;;5.57;2.80;;;;;;;3.62;100.00;96600.22;5008754;28;24795;-76
2023/04/03 08:40:10;;;;;;;5.30;2.63;;;;;;;3.67;100.00;96595.88;5005668;28;24432;-76
2023/04/03 08:42:52;;;;;;;4.78;2.80;;;;;;;3.82;100.00;96598.09;5011074;28;24440;-76
2023/04/03 08:45:23;;;;;;;4.32;2.70;;;;;;;3.77;100.00;96593.91;5005910;28;24428;-76
2023/04/03 08:47:58;;;;;;;6.10;2.80;;;;;;;3.58;100.00;96594.34;5010770;28;24527;-76
2023/04/03 08:50:29;;;;;;;4.53;2.78;;;;;;;4.15;100.00;96603.25;5010695;28;24792;-76
2023/04/03 08:52:58;;;;;;;4.20;2.70;;;;;;;4.61;100.00;96604.69;5009841;28;24971;-76
2023/04/03 08:55:28;;;;;;;5.18;2.75;;;;;;;4.40;100.00;96608.63;5009071;28;24452;-76
2023/04/03 08:58:02;;;;;;;9.23;2.90;;;;;;;4.31;100.00;96612.28;5010586;28;24512;-76
2023/04/03 09:00:33;;;;;;;6.18;2.50;;;;;;;4.10;100.00;96607.66;5011176;28;24506;-76
2023/04/03 09:02:59;;;;;;;6.05;2.72;;;;;;;4.24;100.00;96602.22;5010902;28;24443;-76
2023/04/03 09:05:38;;;;;;;8.18;2.95;;;;;;;4.30;100.00;96599.47;5010718;28;24428;-77
2023/04/03 09:08:13;;;;;;;3.40;2.08;;;;;;;4.32;100.00;96601.13;5010503;28;24439;-76
2023/04/03 09:10:42;;;;;;;5.40;2.58;;;;;;;4.24;100.00;96609.91;5010836;28;24432;-76
2023/04/03 09:13:17;;;;;;;4.90;2.80;;;;;;;4.06;100.00;96611.19;5006938;28;24443;-76
2023/04/03 09:15:45;;;;;;;7.78;2.60;;;;;;;4.18;100.00;96607.50;5010287;28;24455;-76
2023/04/03 09:18:17;;;;;;;5.57;2.40;;;;;;;4.07;100.00;96603.44;5010418;28;24456;-76
2023/04/03 09:20:50;;;;;;;5.13;2.53;;;;;;;4.13;100.00;96612.72;5010653;28;24460;-76
2023/04/03 09:23:23;;;;;;;4.05;2.60;;;;;;;4.50;100.00;96611.81;5010160;28;24490;-75
2023/04/03 09:25:54;;;;;;;4.38;2.40;;;;;;;4.60;100.00;96609.00;5010107;28;24478;-76
2023/04/03 09:28:22;;;;;;;3.78;2.15;;;;;;;4.65;100.00;96614.00;5010242;28;24483;-76
2023/04/03 09:30:48;;;;;;;12.45;3.33;;;;;;;4.51;100.00;96603.25;5008239;28;24452;-76
2023/04/03 09:33:15;;;;;;;3.97;2.28;;;;;;;4.20;100.00;96608.31;5010327;28;24440;-75
2023/04/03 09:35:42;;;;;;;6.13;2.47;;;;;;;4.26;100.00;96605.56;5009657;28;24468;-76
2023/04/03 09:38:21;;;;;;;8.13;2.85;;;;;;;4.28;100.00;96611.53;5013690;28;24796;-76
2023/04/03 09:40:51;;;;;;;3.10;2.05;;;;;;;4.13;100.00;96610.16;5009991;28;24484;-75
2023/04/03 09:43:28;;;;;;;4.75;2.00;;;;;;;4.13;100.00;96612.72;5009356;28;24482;-76
2023/04/03 09:45:57;;;;;;;4.28;2.35;;;;;;;4.29;100.00;96613.19;5009753;28;24417;-76
2023/04/03 09:48:24;;;;;;;5.15;2.55;;;;;;;4.63;100.00;96609.78;5002999;28;24575;-75
2023/04/03 09:50:59;;;;;;;3.55;2.08;;;;;;;4.79;96.47;96605.94;5003379;28;24991;-75
2023/04/03 09:53:33;;;;;;;4.65;2.22;;;;;;;4.92;100.00;96602.16;5009678;28;24982;-75
2023/04/03 09:56:03;;;;;;;3.97;2.17;;;;;;;4.81;100.00;96607.56;5009834;28;24467;-75
2023/04/03 09:58:36;;;;;;;4.10;2.15;;;;;;;4.53;96.03;96602.34;5009736;28;24443;-75
2023/04/03 10:01:03;;;;;;;3.08;2.10;;;;;;;4.63;96.11;96604.66;5009876;28;24444;-75
2023/04/03 10:03:34;;;;;;;4.13;2.22;;;;;;;4.61;96.54;96609.81;5009467;28;24436;-75
2023/04/03 10:06:00;;;;;;;2.60;1.80;;;;;;;4.46;92.59;96611.06;5010248;28;24437;-75
2023/04/03 10:08:30;;;;;;;3.58;1.80;;;;;;;4.59;96.02;96601.31;5008148;28;24448;-75
2023/04/03 10:11:16;;;;;;;3.28;1.75;;;;;;;4.41;89.74;96602.63;5010153;28;24799;-75
2023/04/03 10:13:56;;;;;;;3.00;2.00;;;;;;;4.23;88.51;96590.28;5008195;28;24444;-75
2023/04/03 10:16:28;;;;;;;2.25;1.90;;;;;;;4.43;97.31;96590.63;5010132;28;24506;-75
2023/04/03 10:19:04;;;;;;;3.83;1.90;;;;;;;4.59;95.72;96585.91;5008175;28;24894;-75
2023/04/03 10:21:42;;;;;;;4.77;1.73;;;;;;;4.46;88.79;96589.69;5011163;28;25022;-76
2023/04/03 10:24:13;;;;;;;2.90;2.00;;;;;;;4.46;88.50;96593.09;5005754;28;24490;-76
2023/04/03 10:26:46;;;;;;;5.07;2.10;;;;;;;4.34;84.23;96588.28;5015377;28;24432;-76
2023/04/03 10:29:23;;;;;;;4.68;2.10;;;;;;;4.50;89.08;96593.88;5002528;28;24432;-76
2023/04/03 10:31:59;;;;;;;4.05;1.95;;;;;;;4.58;91.18;96590.22;5004191;28;24448;-76
2023/04/03 10:34:32;;;;;;;5.15;2.35;;;;;;;4.41;85.22;96594.94;5009364;28;24454;-76
2023/04/03 10:37:04;;;;;;;6.15;2.13;;;;;;;4.65;86.80;96590.91;5009196;28;24997;-76
2023/04/03 10:39:39;;;;;;;3.30;1.88;;;;;;;4.67;82.17;96599.38;5009797;28;24431;-75
2023/04/03 10:42:12;;;;;;;6.28;2.10;;;;;;;4.59;84.07;96597.03;5009200;28;24440;-75
2023/04/03 10:44:50;;;;;;;3.70;2.07;;;;;;;4.64;84.03;96593.53;5009771;28;24497;-76
2023/04/03 10:47:22;;;;;;;3.25;2.10;;;;;;;4.59;81.91;96594.47;5007557;28;24440;-76
2023/04/03 10:50:01;;;;;;;4.45;1.80;;;;;;;4.46;80.97;96594.84;5007278;28;24432;-76
2023/04/03 10:52:36;;;;;;;2.97;2.08;;;;;;;4.61;89.33;96599.56;5009400;28;24883;-76
2023/04/03 10:55:15;;;;;;;3.13;1.98;;;;;;;4.31;85.27;96596.91;5009079;28;24459;-75
2023/04/03 10:57:42;;;;;;;3.10;2.00;;;;;;;4.22;83.92;96594.53;5012795;28;24503;-77
2023/04/03 11:00:19;;;;;;;5.10;2.05;;;;;;;4.50;89.97;96604.97;5013491;28;24490;-77
2023/04/03 11:02:50;;;;;;;2.80;1.80;;;;;;;4.32;80.25;96595.19;5012860;28;25018;-77
2023/04/03 11:05:22;;;;;;;3.78;1.83;;;;;;;4.38;82.09;96597.59;5013096;28;24497;-78
2023/04/03 11:07:53;;;;;;;4.35;1.48;;;;;;;4.29;84.28;96598.66;5012690;28;24435;-75
2023/04/03 11:10:24;;;;;;;3.47;1.90;;;;;;;4.09;80.35;96604.28;5013277;28;24435;-76
2023/04/03 11:12:55;;;;;;;4.40;1.50;;;;;;;4.16;80.25;96589.59;5012842;28;24491;-76
2023/04/03 11:15:25;;;;;;;2.38;1.63;;;;;;;4.26;84.94;96591.03;5006247;28;24514;-77
2023/04/03 11:17:56;;;;;;;3.53;1.70;;;;;;;4.34;87.66;96585.72;5012630;28;24464;-77
2023/04/03 11:20:27;;;;;;;3.22;1.80;;;;;;;4.19;82.53;96598.91;5012949;28;24795;-79
2023/04/03 11:23:03;;;;;;;9.90;1.88;;;;;;;4.35;85.79;96590.81;5012677;28;24519;-77
2023/04/03 11:25:33;;;;;;;3.80;1.45;;;;;;;4.35;79.96;96590.81;5012423;28;24440;-78
2023/04/03 11:28:02;;;;;;;3.00;2.00;;;;;;;4.33;81.83;96584.03;5012318;28;24437;-77
2023/04/03 11:30:34;;;;;;;2.88;1.42;;;;;;;4.08;79.80;96589.78;5012465;28;24444;-77
2023/04/03 11:33:12;;;;;;;2.08;1.40;;;;;;;4.33;81.42;96584.03;5012052;28;24989;-77
2023/04/03 11:35:44;;;;;;;6.05;1.77;;;;;;;4.18;78.63;96579.28;5009531;28;24998;-77
2023/04/03 11:38:19;;;;;;;4.47;1.80;;;;;;;4.23;78.89;96585.16;5004798;28;24428;-77
2023/04/03 11:40:47;;;;;;;4.13;1.70;;;;;;;4.25;79.10;96584.22;5012442;28;24476;-77